Bellaire, Kansas
Current Conditions -  °F | °C
As of 5:55 PM on Friday 21 Nov 2014 (Local Time) from KCNK Reporting Station
Overcast Overcast  
Wind Chill: 30°   Ceiling: 600
Heat Index: 37°   Visibility: 7mi
Dew Point: 35°   Wind: 10mph
Humidity: 93%   Direction: 130°SE
Pressure: 30.02"   Gusts: NA
Location:  39.8283°N, 98.5606°W
Report Text: KCNK 212355Z AUTO 13009KT 7SM OVC006 03/02 A3002 RMK AO2 CIG 004V008 SLP181 T00280017 10072 20028 58001
Loading
Personal Weather Stations






























Interactive Weather Map New forecast layout! Learn more

10-Day Weather Forecast

Advertisements
Track Severe Weather on mobile